Abalroador — CSOO7 — position and weather

sailwx.info

Track history (hours):
 
Tides and Currents Weather Stations Pressure Air Temp Water Temp Dewpoint Dewpoint Depression Visibility Wind Speed Wind Dir Waves Ship Positions

Abalroador

Last reported at 2017-Nov-17 22:53 UTC. Time now 2017-Nov-20 00:28 UTC.
Position N 38°30' W 008°50'.

Length 12 m.

Type: . MMSI: 263673843.

Date/timePositionNaut miles runAvg speedWind from/ knotsBaromVisibWave heightAir tempDewpointWater temp
2017-Nov-17 22:53N 38°30' W 008°50'921.5
2017-Nov-17 22:27N 38°26' W 009°01'4 3.6
2017-Nov-17 21:13N 38°26' W 009°07'1 3.9
2017-Nov-17 21:00N 38°26' W 009°07'5 5.9
2017-Nov-17 20:06N 38°23' W 009°13'217.9
2017-Nov-17 20:00N 38°21' W 009°14'611.6
2017-Nov-17 19:30N 38°27' W 009°17'815.2
2017-Nov-17 18:59N 38°35' W 009°18'713.6
2017-Nov-17 18:30N 38°41' W 009°16'2 1.7
2017-Nov-17 17:21N 38°42' W 009°14'1 3.8
2017-Nov-17 16:58N 38°42' W 009°12'1 2.5
2017-Nov-17 16:29N 38°41' W 009°14'0 0.0
2017-Nov-16 16:14N 38°42' W 009°14'0 0.0
2017-Nov-16 15:50N 38°42' W 009°14'0 0.0
2017-Nov-16 15:26N 38°42' W 009°14'0 0.0
2017-Nov-16 14:56N 38°42' W 009°14'0 0.1
2017-Nov-16 14:25N 38°42' W 009°14'0 0.0
2017-Nov-16 12:30N 38°42' W 009°14'1122.8
2017-Nov-16 12:00N 38°30' W 009°13'4 8.2
2017-Nov-16 11:30N 38°26' W 009°13'2 3.8
2017-Nov-16 11:00N 38°24' W 009°12'5 9.0
2017-Nov-16 10:30N 38°25' W 009°07'5 9.3
2017-Nov-16 10:00N 38°26' W 009°01'4 8.4
2017-Nov-16 09:30N 38°29' W 008°57'4 7.5
2017-Nov-16 09:00N 38°31' W 008°53'  
Track history (hours):
 
Tides and Currents Weather Stations Pressure Air Temp Water Temp Dewpoint Dewpoint Depression Visibility Wind Speed Wind Dir Waves Ship Positions

Abalroador

Last reported at 2017-Nov-17 22:53 UTC. Time now 2017-Nov-20 00:28 UTC.
Position N 38°30' W 008°50'.

Length 12 m.

Type: . MMSI: 263673843.

Date/timePositionNaut miles runAvg speedWind from/ knotsBaromVisibWave heightAir tempDewpointWater temp
2017-Nov-17 22:53N 38°30' W 008°50'921.5
2017-Nov-17 22:27N 38°26' W 009°01'4 3.6
2017-Nov-17 21:13N 38°26' W 009°07'1 3.9
2017-Nov-17 21:00N 38°26' W 009°07'5 5.9
2017-Nov-17 20:06N 38°23' W 009°13'217.9
2017-Nov-17 20:00N 38°21' W 009°14'611.6
2017-Nov-17 19:30N 38°27' W 009°17'815.2
2017-Nov-17 18:59N 38°35' W 009°18'713.6
2017-Nov-17 18:30N 38°41' W 009°16'2 1.7
2017-Nov-17 17:21N 38°42' W 009°14'1 3.8
2017-Nov-17 16:58N 38°42' W 009°12'1 2.5
2017-Nov-17 16:29N 38°41' W 009°14'0 0.0
2017-Nov-16 16:14N 38°42' W 009°14'0 0.0
2017-Nov-16 15:50N 38°42' W 009°14'0 0.0
2017-Nov-16 15:26N 38°42' W 009°14'0 0.0
2017-Nov-16 14:56N 38°42' W 009°14'0 0.1
2017-Nov-16 14:25N 38°42' W 009°14'0 0.0
2017-Nov-16 12:30N 38°42' W 009°14'1122.8
2017-Nov-16 12:00N 38°30' W 009°13'4 8.2
2017-Nov-16 11:30N 38°26' W 009°13'2 3.8
2017-Nov-16 11:00N 38°24' W 009°12'5 9.0
2017-Nov-16 10:30N 38°25' W 009°07'5 9.3
2017-Nov-16 10:00N 38°26' W 009°01'4 8.4
2017-Nov-16 09:30N 38°29' W 008°57'4 7.5
2017-Nov-16 09:00N 38°31' W 008°53'  

Dump ship's entire track history